Time;durP1;ratioP1;P1;durP2;ratioP2;P2;SDS_P1;SDS_P2;PMS_P1;PMS_P2;Temp;Humidity;BMP_temperature;BMP_pressure;BME280_temperature;BME280_humidity;BME280_pressure;Samples;Min_cycle;Max_cycle;Signal;HPM_P1;HPM_P2
2023/04/17 07:36:19;;;;;;;;;;;18.90;68.50;;;;;;6269919;22;19941;-75
2023/04/17 07:38:46;;;;;;;;;;;18.80;68.40;;;;;;6246050;22;20322;-83
2023/04/17 07:41:13;;;;;;;;;;;18.80;68.60;;;;;;6272089;22;19938;-82
2023/04/17 07:43:40;;;;;;;;;;;18.90;68.40;;;;;;6272423;22;19941;-84
2023/04/17 07:46:06;;;;;;;;;;;18.80;68.90;;;;;;6268556;22;20458;-80
2023/04/17 07:48:33;;;;;;;;;;;18.80;68.20;;;;;;6245120;22;19903;-80
2023/04/17 07:51:00;;;;;;;;;;;18.80;68.90;;;;;;6272435;22;19911;-82
2023/04/17 07:53:27;;;;;;;;;;;18.80;68.90;;;;;;6244968;22;20235;-80
2023/04/17 07:55:54;;;;;;;;;;;18.80;68.80;;;;;;6271933;22;19935;-78
2023/04/17 07:58:22;;;;;;;;;;;18.80;68.90;;;;;;6271663;22;19909;-78
2023/04/17 08:00:50;;;;;;;;;;;18.80;69.70;;;;;;6272110;22;19922;-76
2023/04/17 08:03:20;;;;;;;;;;;18.80;69.70;;;;;;6272138;22;19914;-76
2023/04/17 08:05:47;;;;;;;;;;;18.70;69.70;;;;;;6268155;22;19915;-76
2023/04/17 08:08:14;;;;;;;;;;;18.70;69.90;;;;;;6271711;22;20353;-76
2023/04/17 08:10:41;;;;;;;;;;;18.70;69.70;;;;;;6270821;22;19914;-78
2023/04/17 08:13:08;;;;;;;;;;;18.70;70.50;;;;;;6272328;22;19908;-79
2023/04/17 08:15:39;;;;;;;;;;;18.60;69.90;;;;;;6272163;22;19911;-79
2023/04/17 08:18:06;;;;;;;;;;;18.60;70.10;;;;;;6272788;22;19907;-83
2023/04/17 08:20:33;;;;;;;;;;;18.60;70.50;;;;;;6270910;22;19911;-82
2023/04/17 08:23:00;;;;;;;;;;;18.60;70.70;;;;;;6272467;22;19938;-81
2023/04/17 08:25:27;;;;;;;;;;;18.60;70.50;;;;;;6272444;22;20263;-76
2023/04/17 08:27:53;;;;;;;;;;;18.60;71.20;;;;;;6272234;22;19990;-76
2023/04/17 08:30:20;;;;;;;;;;;18.60;71.20;;;;;;6272119;22;19908;-77
2023/04/17 08:32:47;;;;;;;;;;;18.50;71.80;;;;;;6272335;22;19911;-75
2023/04/17 10:57:56;;;;;;;;;;;18.30;73.50;;;;;;6258215;22;19927;-86
2023/04/17 11:00:35;;;;;;;;;;;18.30;74.00;;;;;;6240240;23;19918;-81
2023/04/17 11:03:03;;;;;;;;;;;18.30;73.30;;;;;;6240869;23;20330;-82
2023/04/17 11:05:34;;;;;;;;;;;18.30;74.00;;;;;;6242089;23;20335;-83
2023/04/17 11:08:01;;;;;;;;;;;18.30;73.80;;;;;;6240216;23;19904;-80
2023/04/17 11:10:27;;;;;;;;;;;18.30;72.70;;;;;;6242430;23;19943;-86
2023/04/17 11:12:57;;;;;;;;;;;18.30;74.10;;;;;;6242264;23;20251;-81
2023/04/17 11:15:30;;;;;;;;;;;18.30;73.60;;;;;;6241985;23;19908;-81
2023/04/17 11:17:57;;;;;;;;;;;18.20;74.00;;;;;;6241533;23;19907;-81
2023/04/17 11:20:24;;;;;;;;;;;18.20;73.90;;;;;;6241750;23;19977;-81
2023/04/17 11:22:51;;;;;;;;;;;18.20;74.10;;;;;;6242526;23;19912;-80
2023/04/17 11:25:21;;;;;;;;;;;18.20;74.10;;;;;;6242682;23;19912;-81
2023/04/17 11:27:51;;;;;;;;;;;18.20;73.80;;;;;;6242649;23;19911;-81
2023/04/17 11:30:24;;;;;;;;;;;18.20;74.10;;;;;;6241261;23;19968;-80
2023/04/17 11:32:52;;;;;;;;;;;18.20;74.20;;;;;;6242890;23;19930;-81
2023/04/17 11:35:23;;;;;;;;;;;18.20;74.40;;;;;;6216216;23;19911;-81
2023/04/17 11:38:12;;;;;;;;;;;18.20;74.60;;;;;;6241761;23;19990;-81
2023/04/17 11:40:45;;;;;;;;;;;18.20;74.90;;;;;;6241141;23;19916;-81
2023/04/17 11:43:12;;;;;;;;;;;18.10;74.60;;;;;;6241380;23;20456;-83
2023/04/17 11:45:40;;;;;;;;;;;18.10;74.80;;;;;;6241728;23;19954;-77
2023/04/17 11:48:10;;;;;;;;;;;18.20;74.90;;;;;;6244438;23;19935;-77
2023/04/17 11:50:37;;;;;;;;;;;18.10;74.60;;;;;;6245034;23;19904;-80
2023/04/17 11:53:04;;;;;;;;;;;18.10;74.80;;;;;;6244815;23;19990;-80
2023/04/17 11:55:32;;;;;;;;;;;18.10;74.70;;;;;;6218172;23;19904;-80
2023/04/17 12:32:47;;;;;;;;;;;17.70;75.70;;;;;;6268538;22;19929;-79
2023/04/17 12:35:17;;;;;;;;;;;17.60;75.50;;;;;;6275156;22;19946;-80
2023/04/17 12:37:47;;;;;;;;;;;17.70;75.30;;;;;;6274751;22;19903;-80
2023/04/17 12:40:17;;;;;;;;;;;17.70;75.30;;;;;;6274977;22;20278;-80
2023/04/17 12:42:45;;;;;;;;;;;17.70;75.60;;;;;;6275303;22;19915;-80
2023/04/17 12:45:13;;;;;;;;;;;17.60;76.10;;;;;;6275832;22;19903;-80
2023/04/17 12:47:40;;;;;;;;;;;17.60;76.70;;;;;;6274480;22;19903;-80
2023/04/17 12:50:07;;;;;;;;;;;17.60;77.20;;;;;;6275543;22;19910;-80
2023/04/17 12:52:33;;;;;;;;;;;17.50;77.60;;;;;;6275219;22;19908;-79
2023/04/17 12:55:00;;;;;;;;;;;17.50;77.90;;;;;;6275358;22;19903;-79
2023/04/17 12:57:27;;;;;;;;;;;17.50;78.40;;;;;;6275566;22;19970;-79
2023/04/17 12:59:54;;;;;;;;;;;17.40;78.80;;;;;;6275639;22;19911;-79
2023/04/17 13:02:22;;;;;;;;;;;17.40;79.00;;;;;;6275749;22;19915;-79
2023/04/17 13:04:52;;;;;;;;;;;17.30;79.50;;;;;;6275624;22;19907;-80
2023/04/17 13:07:19;;;;;;;;;;;17.30;79.80;;;;;;6275672;22;19903;-79
2023/04/17 13:09:45;;;;;;;;;;;17.20;80.00;;;;;;6275200;22;20220;-79
2023/04/17 13:12:14;;;;;;;;;;;17.20;80.40;;;;;;6275112;22;19903;-79
2023/04/17 13:14:41;;;;;;;;;;;17.10;80.80;;;;;;6275888;22;19926;-79
2023/04/17 13:17:07;;;;;;;;;;;17.00;81.20;;;;;;6275119;22;20276;-78
2023/04/17 13:19:34;;;;;;;;;;;17.00;81.50;;;;;;6248102;22;19918;-78
2023/04/17 13:22:01;;;;;;;;;;;17.00;81.40;;;;;;6275003;22;19919;-78
2023/04/17 13:24:28;;;;;;;;;;;16.90;81.50;;;;;;6276144;22;19911;-79
2023/04/17 13:26:58;;;;;;;;;;;16.90;81.40;;;;;;6274933;22;19923;-79
2023/04/17 13:29:24;;;;;;;;;;;16.90;81.30;;;;;;6275281;22;19942;-79
2023/04/17 13:31:51;;;;;;;;;;;16.90;81.40;;;;;;6275281;22;19914;-80
2023/04/17 15:24:52;;;;;;;;;;;15.90;84.90;;;;;;6273201;22;19968;-79
2023/04/17 15:27:19;;;;;;;;;;;15.80;84.90;;;;;;6276806;22;19957;-79
2023/04/17 15:29:45;;;;;;;;;;;15.80;84.80;;;;;;6275765;22;19933;-79
2023/04/17 15:32:12;;;;;;;;;;;15.90;84.90;;;;;;6276181;22;19982;-79
2023/04/17 15:34:39;;;;;;;;;;;15.90;85.00;;;;;;6275077;22;19965;-79
2023/04/17 15:37:06;;;;;;;;;;;16.00;85.40;;;;;;6275721;22;19903;-79
2023/04/17 15:39:36;;;;;;;;;;;16.00;84.90;;;;;;6248736;22;19930;-79
2023/04/17 15:42:05;;;;;;;;;;;15.90;84.70;;;;;;6275592;22;20238;-79
2023/04/17 15:44:34;;;;;;;;;;;15.90;84.80;;;;;;6275485;22;19927;-79
2023/04/17 15:47:01;;;;;;;;;;;16.00;84.90;;;;;;6276725;22;19904;-79
2023/04/17 15:49:29;;;;;;;;;;;15.90;84.90;;;;;;6274910;22;19904;-79
2023/04/17 15:51:56;;;;;;;;;;;15.90;85.00;;;;;;6275363;22;20215;-79
2023/04/17 15:54:23;;;;;;;;;;;15.90;85.30;;;;;;6276180;22;20204;-79
2023/04/17 15:56:49;;;;;;;;;;;15.90;85.50;;;;;;6276137;22;19916;-79
2023/04/17 15:59:16;;;;;;;;;;;15.80;85.30;;;;;;6249491;22;19910;-79
2023/04/17 16:01:46;;;;;;;;;;;15.80;85.60;;;;;;6248981;22;20257;-79
2023/04/17 16:04:13;;;;;;;;;;;15.80;85.80;;;;;;6275548;22;20290;-79
2023/04/17 16:06:40;;;;;;;;;;;15.70;85.90;;;;;;6275374;22;19965;-79
2023/04/17 16:09:07;;;;;;;;;;;15.70;85.90;;;;;;6275597;22;20104;-79
2023/04/17 16:11:34;;;;;;;;;;;15.70;86.00;;;;;;6275661;22;19907;-79
2023/04/17 16:14:00;;;;;;;;;;;15.80;86.20;;;;;;6275916;22;20219;-79
2023/04/17 16:16:28;;;;;;;;;;;15.80;86.00;;;;;;6276098;22;19914;-79
2023/04/17 16:18:54;;;;;;;;;;;15.80;85.90;;;;;;6274482;22;19910;-79
2023/04/17 16:21:21;;;;;;;;;;;15.80;86.00;;;;;;6275620;22;20273;-79
2023/04/17 16:23:48;;;;;;;;;;;15.70;86.00;;;;;;6270232;22;19915;-79
2023/04/17 16:26:15;;;;;;;;;;;15.70;86.10;;;;;;6218697;22;19903;-79
2023/04/17 16:28:42;;;;;;;;;;;15.70;86.20;;;;;;6216840;23;20309;-79
2023/04/17 16:31:09;;;;;;;;;;;15.70;86.20;;;;;;6245416;23;19903;-79
2023/04/17 16:33:38;;;;;;;;;;;15.70;86.30;;;;;;6245833;23;19911;-79
2023/04/17 16:36:05;;;;;;;;;;;15.70;86.30;;;;;;6244596;22;19986;-79
2023/04/17 16:38:31;;;;;;;;;;;15.60;86.30;;;;;;6244465;23;19904;-79
2023/04/17 16:41:00;;;;;;;;;;;15.60;86.50;;;;;;6244683;23;19973;-79
2023/04/17 16:43:29;;;;;;;;;;;15.60;86.30;;;;;;6245056;23;20354;-79
2023/04/17 16:45:56;;;;;;;;;;;15.60;86.20;;;;;;6218585;22;19903;-79
2023/04/17 16:48:23;;;;;;;;;;;15.50;86.50;;;;;;6244971;23;20307;-79
2023/04/17 16:50:49;;;;;;;;;;;15.40;86.50;;;;;;6245007;23;19903;-79
2023/04/17 16:53:16;;;;;;;;;;;15.40;86.70;;;;;;6244855;23;19911;-79
2023/04/17 16:55:43;;;;;;;;;;;15.40;86.60;;;;;;6244985;23;19911;-79
2023/04/17 16:58:10;;;;;;;;;;;15.40;86.70;;;;;;6244132;22;19903;-79
2023/04/17 17:00:36;;;;;;;;;;;15.40;86.80;;;;;;6245367;23;19908;-79
2023/04/17 17:03:03;;;;;;;;;;;15.30;86.90;;;;;;6245595;23;19910;-79
2023/04/17 17:05:30;;;;;;;;;;;15.30;87.00;;;;;;6244853;23;19946;-79
2023/04/17 17:07:57;;;;;;;;;;;15.30;87.00;;;;;;6244581;22;19991;-79
2023/04/17 17:10:23;;;;;;;;;;;15.30;87.10;;;;;;6244932;23;19968;-79
2023/04/17 17:12:50;;;;;;;;;;;15.30;87.20;;;;;;6246564;23;20314;-79
2023/04/17 17:15:17;;;;;;;;;;;15.30;87.30;;;;;;6247518;23;19923;-79
2023/04/17 17:17:43;;;;;;;;;;;15.30;87.30;;;;;;6246935;22;19908;-79
2023/04/17 17:34:49;;;;;;;;;;;15.30;86.70;;;;;;6272715;22;19922;-78
2023/04/17 17:37:15;;;;;;;;;;;15.30;86.20;;;;;;6276695;22;19955;-79
2023/04/17 17:39:42;;;;;;;;;;;15.20;86.20;;;;;;6277087;22;19911;-79
2023/04/17 17:42:09;;;;;;;;;;;15.20;86.40;;;;;;6277011;22;19911;-79
2023/04/17 17:44:36;;;;;;;;;;;15.30;86.40;;;;;;6276418;22;19903;-79
2023/04/17 17:47:03;;;;;;;;;;;15.20;86.20;;;;;;6276618;22;19907;-78
2023/04/17 17:49:30;;;;;;;;;;;15.20;86.70;;;;;;6250483;22;19931;-79
2023/04/17 17:51:57;;;;;;;;;;;15.20;86.10;;;;;;6276277;22;19903;-79
2023/04/17 17:54:23;;;;;;;;;;;15.20;86.20;;;;;;6250219;22;19903;-78
2023/04/17 17:56:50;;;;;;;;;;;15.20;86.30;;;;;;6277232;22;19904;-78
2023/04/17 17:59:17;;;;;;;;;;;15.20;86.40;;;;;;6277238;22;19903;-79
2023/04/17 18:01:43;;;;;;;;;;;15.10;86.40;;;;;;6277998;22;19912;-79
2023/04/17 18:04:10;;;;;;;;;;;15.20;86.50;;;;;;6276858;22;19908;-79
2023/04/17 18:06:38;;;;;;;;;;;15.10;86.40;;;;;;6277471;22;19938;-78
2023/04/17 18:09:05;;;;;;;;;;;15.10;86.50;;;;;;6277219;22;19952;-79
2023/04/17 18:11:32;;;;;;;;;;;15.10;86.60;;;;;;6277414;22;19954;-79
2023/04/17 18:13:59;;;;;;;;;;;15.10;86.40;;;;;;6276795;22;19957;-78
2023/04/17 18:16:30;;;;;;;;;;;15.00;86.50;;;;;;6277009;22;19910;-79
2023/04/17 18:19:02;;;;;;;;;;;15.00;86.40;;;;;;6276259;22;19938;-79
2023/04/17 18:21:30;;;;;;;;;;;15.00;86.50;;;;;;6275938;22;19918;-79
2023/04/17 18:23:57;;;;;;;;;;;15.00;86.60;;;;;;6275648;22;19954;-78
2023/04/17 18:26:23;;;;;;;;;;;15.00;86.50;;;;;;6277012;22;19903;-78
2023/04/17 18:28:50;;;;;;;;;;;15.00;86.60;;;;;;6277241;22;19914;-78
2023/04/17 18:31:17;;;;;;;;;;;14.90;86.60;;;;;;6277172;22;19903;-79
2023/04/17 18:33:44;;;;;;;;;;;14.90;86.60;;;;;;6277215;22;19907;-79
